Ibipitanga, Brazil
Current Conditions -  °F | °C
As of 11:00 AM on Wednesday 28 Jan 2015 (Local Time) from SBQV Reporting Station
Broken Clouds Broken Clouds  
Wind Chill: 81°   Ceiling: 2000
Heat Index: 83°   Visibility: 6mi
Dew Point: 66°   Wind: 7mph
Humidity: 61%   Direction: 50°NE
Pressure: 30.15"   Gusts: NA
Location:  12.89°S, 42.48°W
Report Text: SBQV 281400Z 05006KT 9999 BKN020 27/19 Q1021
Loading
Personal Weather Stations






























Interactive Weather Map New forecast layout! Learn more

10-Day Weather Forecast

Advertisements
Track Severe Weather on mobile